Time;durP1;ratioP1;P1;durP2;ratioP2;P2;SDS_P1;SDS_P2;PMS_P1;PMS_P2;Temp;Humidity;BMP_temperature;BMP_pressure;BME280_temperature;BME280_humidity;BME280_pressure;Samples;Min_cycle;Max_cycle;Signal;HPM_P1;HPM_P2
2023/04/25 00:01:40;;;;;;;7.40;5.20;;;9.70;1.00;;;;;;5030036;28;20501;-74
2023/04/25 00:04:06;;;;;;;7.70;5.30;;;9.80;1.00;;;;;;5015523;28;20157;-74
2023/04/25 00:06:35;;;;;;;9.30;5.70;;;10.50;1.00;;;;;;5015340;28;20483;-74
2023/04/25 00:09:03;;;;;;;8.73;5.80;;;9.70;1.00;;;;;;5029828;28;20431;-74
2023/04/25 00:11:30;;;;;;;10.17;6.73;;;9.40;1.00;;;;;;5035272;28;20466;-74
2023/04/25 00:14:42;;;;;;;10.50;5.50;;;9.50;1.00;;;;;;5034469;28;20409;-79
2023/04/25 00:17:42;;;;;;;6.40;5.00;;;9.50;1.00;;;;;;5015026;28;20404;-79
2023/04/25 00:24:00;;;;;;;5.40;4.67;;;9.30;1.00;;;;;;5014588;28;20805;-79
2023/04/25 00:27:01;;;;;;;7.90;4.83;;;9.30;1.00;;;;;;5015051;28;20836;-79
2023/04/25 00:32:48;;;;;;;7.60;4.90;;;9.30;1.00;;;;;;5034222;28;20464;-79
2023/04/25 00:35:36;;;;;;;6.50;4.37;;;9.30;1.00;;;;;;5034398;28;20370;-79
2023/04/25 00:38:07;;;;;;;7.20;4.73;;;9.30;1.00;;;;;;5034601;28;20386;-79
2023/04/25 00:44:02;;;;;;;6.80;4.70;;;9.40;1.00;;;;;;5033202;28;20378;-74
2023/04/25 00:46:27;;;;;;;5.70;3.97;;;9.30;1.00;;;;;;5029825;28;20802;-74
2023/04/25 00:48:55;;;;;;;6.67;4.90;;;9.30;1.00;;;;;;5014857;28;20488;-74
2023/04/25 00:51:21;;;;;;;4.90;4.40;;;9.30;1.00;;;;;;5014650;28;20169;-74
2023/04/25 00:53:50;;;;;;;9.00;4.83;;;9.40;1.00;;;;;;5014651;28;20785;-74
2023/04/25 00:56:16;;;;;;;6.60;4.90;;;9.40;1.00;;;;;;5045044;28;20831;-74
2023/04/25 00:59:13;;;;;;;9.13;4.83;;;9.20;1.00;;;;;;5030948;28;20739;-79
2023/04/25 01:02:00;;;;;;;12.57;5.50;;;9.30;1.00;;;;;;5029489;28;20403;-79
2023/04/25 01:05:13;;;;;;;6.67;4.37;;;9.30;1.00;;;;;;5014394;28;20443;-79
2023/04/25 01:07:39;;;;;;;6.10;3.90;;;9.20;1.00;;;;;;5014405;28;20410;-79
2023/04/25 01:10:36;;;;;;;5.50;4.50;;;9.20;1.00;;;;;;5014368;28;20395;-79
2023/04/25 01:13:42;;;;;;;10.33;5.03;;;9.20;1.00;;;;;;5014187;28;20420;-79
2023/04/25 01:16:25;;;;;;;6.50;4.80;;;9.20;1.00;;;;;;5012740;28;20408;-79
2023/04/25 01:19:15;;;;;;;8.70;5.50;;;9.20;1.00;;;;;;5013872;28;20389;-79
2023/04/25 01:21:50;;;;;;;7.47;5.27;;;9.10;1.00;;;;;;5021635;28;20423;-79
2023/04/25 01:24:37;;;;;;;5.70;4.70;;;9.20;1.00;;;;;;5033558;28;20362;-79
2023/04/25 01:27:36;;;;;;;7.43;5.20;;;9.20;1.00;;;;;;5033857;28;20485;-79
2023/04/25 01:30:04;;;;;;;8.07;5.30;;;9.10;1.00;;;;;;5033214;28;20412;-74
2023/04/25 01:32:38;;;;;;;7.97;5.00;;;9.10;1.00;;;;;;5015623;28;20405;-74
2023/04/25 01:35:09;;;;;;;9.73;5.17;;;9.10;1.00;;;;;;5014154;28;20355;-74
2023/04/25 01:37:39;;;;;;;10.70;5.20;;;9.20;1.00;;;;;;5014142;28;20422;-74
2023/04/25 01:40:07;;;;;;;6.27;4.93;;;9.10;1.00;;;;;;5013985;28;20498;-74
2023/04/25 01:42:43;;;;;;;7.80;5.33;;;9.10;1.00;;;;;;5029029;28;20433;-74
2023/04/25 01:45:19;;;;;;;8.50;4.80;;;9.10;1.00;;;;;;5033069;28;20395;-74
2023/04/25 01:47:48;;;;;;;7.40;4.83;;;9.20;1.00;;;;;;5033129;28;20445;-74
2023/04/25 01:50:16;;;;;;;10.10;5.23;;;9.30;1.00;;;;;;5021830;28;20836;-75
2023/04/25 01:52:42;;;;;;;7.30;5.27;;;9.30;1.00;;;;;;5013233;28;20396;-74
2023/04/25 01:55:08;;;;;;;9.83;5.63;;;9.30;1.00;;;;;;5013434;28;20403;-74
2023/04/25 01:57:35;;;;;;;10.63;5.80;;;9.30;1.00;;;;;;5013191;28;20446;-75
2023/04/25 02:00:25;;;;;;;10.60;5.73;;;9.40;1.00;;;;;;5025360;28;20810;-79
2023/04/25 02:02:58;;;;;;;9.77;5.47;;;9.40;1.00;;;;;;5033583;28;20829;-79
2023/04/25 02:06:12;;;;;;;9.33;5.43;;;9.40;1.00;;;;;;5033417;28;20421;-79
2023/04/25 02:09:18;;;;;;;8.93;5.20;;;9.50;1.00;;;;;;5033613;28;20369;-79
2023/04/25 02:11:44;;;;;;;7.93;5.37;;;9.50;1.00;;;;;;5033255;28;20465;-79
2023/04/25 02:14:30;;;;;;;10.13;6.43;;;9.50;1.00;;;;;;5033942;28;20383;-79
2023/04/25 02:17:13;;;;;;;8.70;5.13;;;9.50;1.00;;;;;;5033845;28;20164;-79
2023/04/25 02:20:12;;;;;;;8.03;5.83;;;9.50;1.00;;;;;;5030618;28;20550;-79
2023/04/25 02:23:13;;;;;;;7.80;5.90;;;9.40;1.00;;;;;;5012252;28;20404;-79
2023/04/25 02:32:22;;;;;;;8.90;5.60;;;9.30;1.00;;;;;;5033010;28;20453;-79
2023/04/25 02:34:49;;;;;;;10.20;6.53;;;9.30;1.00;;;;;;5033034;28;20856;-79
2023/04/25 02:37:43;;;;;;;11.70;6.83;;;9.30;1.00;;;;;;5034556;28;20159;-79
2023/04/25 02:40:42;;;;;;;10.60;6.70;;;9.20;1.00;;;;;;5035192;28;20969;-79
2023/04/25 02:43:13;;;;;;;14.23;7.27;;;9.20;1.00;;;;;;5030622;28;20391;-79
2023/04/25 02:45:49;;;;;;;12.47;6.80;;;9.20;1.00;;;;;;5017219;28;20422;-74
2023/04/25 02:48:19;;;;;;;9.70;6.43;;;9.10;1.00;;;;;;5017260;28;20443;-74
2023/04/25 02:50:45;;;;;;;10.67;6.80;;;9.10;1.00;;;;;;5017249;28;20396;-74
2023/04/25 02:53:13;;;;;;;11.60;7.20;;;8.90;1.00;;;;;;5033552;28;20732;-74
2023/04/25 02:55:43;;;;;;;20.70;7.33;;;8.90;1.00;;;;;;5049913;28;20438;-74
2023/04/25 02:58:13;;;;;;;12.20;8.10;;;8.90;1.00;;;;;;5035545;28;20439;-74
2023/04/25 03:01:12;;;;;;;11.20;7.63;;;8.90;1.00;;;;;;5036780;28;20439;-79
2023/04/25 03:03:43;;;;;;;11.60;7.33;;;9.00;1.00;;;;;;5036115;28;20387;-79
2023/04/25 03:06:19;;;;;;;12.80;7.27;;;9.00;1.00;;;;;;5036135;28;20387;-79
2023/04/25 03:09:12;;;;;;;13.53;7.30;;;9.00;1.00;;;;;;5036128;28;20383;-79
2023/04/25 03:15:00;;;;;;;13.00;7.57;;;8.90;1.00;;;;;;5036157;28;20444;-79
2023/04/25 03:17:43;;;;;;;14.73;7.20;;;8.80;1.00;;;;;;5036112;28;20387;-79
2023/04/25 03:20:42;;;;;;;13.30;8.20;;;8.60;1.00;;;;;;5035827;28;20945;-79
2023/04/25 03:23:42;;;;;;;16.70;8.30;;;8.50;1.00;;;;;;5035160;28;20454;-79
2023/04/25 03:26:31;;;;;;;10.23;7.40;;;8.40;1.00;;;;;;5034354;28;20446;-78
2023/04/25 03:28:56;;;;;;;15.27;8.40;;;8.40;1.00;;;;;;5035974;28;20387;-74
2023/04/25 03:31:25;;;;;;;24.60;7.90;;;8.40;3.10;;;;;;5036013;28;20399;-74
2023/04/25 03:33:55;;;;;;;31.67;8.50;;;8.30;1.90;;;;;;5035483;28;20175;-74
2023/04/25 03:36:32;;;;;;;15.53;7.90;;;8.30;2.90;;;;;;5035892;28;20369;-74
2023/04/25 03:38:58;;;;;;;13.80;7.73;;;8.30;3.00;;;;;;5035764;28;20407;-74
2023/04/25 03:41:25;;;;;;;16.90;7.90;;;8.40;2.80;;;;;;5034788;28;20879;-74
2023/04/25 03:47:31;;;;;;;15.03;7.67;;;8.40;3.70;;;;;;5035430;28;20402;-83
2023/04/25 03:50:13;;;;;;;13.70;7.40;;;8.40;1.30;;;;;;5033430;28;20817;-84
2023/04/25 03:53:12;;;;;;;15.77;7.50;;;8.30;1.00;;;;;;5026082;28;20755;-83
2023/04/25 03:55:49;;;;;;;14.27;7.80;;;8.30;1.00;;;;;;5042446;28;20452;-83
2023/04/25 03:58:48;;;;;;;19.20;7.93;;;8.40;1.00;;;;;;5034337;28;20910;-83
2023/04/25 04:01:31;;;;;;;13.60;7.23;;;8.30;1.00;;;;;;5036044;28;20759;-84
2023/04/25 04:04:13;;;;;;;10.90;7.30;;;8.40;1.00;;;;;;5030703;28;20386;-83
2023/04/25 04:06:49;;;;;;;13.83;7.10;;;8.40;1.00;;;;;;5014267;28;20412;-83
2023/04/25 04:12:49;;;;;;;13.93;7.33;;;8.20;1.00;;;;;;5015501;28;20486;-84
2023/04/25 04:15:14;;;;;;;13.80;7.27;;;8.20;1.00;;;;;;5046664;28;20410;-86
2023/04/25 04:17:43;;;;;;;16.93;7.67;;;8.20;1.00;;;;;;5030796;28;20420;-86
2023/04/25 04:20:13;;;;;;;14.83;6.37;;;8.30;1.00;;;;;;5030993;28;20556;-86
2023/04/25 04:26:44;;;;;;;16.07;7.07;;;8.30;1.00;;;;;;5015444;28;20868;-86
2023/04/25 04:29:36;;;;;;;16.23;7.60;;;8.30;1.00;;;;;;5038348;28;20427;-84
2023/04/25 04:32:03;;;;;;;16.23;7.13;;;8.30;1.00;;;;;;5033721;28;20431;-84
2023/04/25 04:35:13;;;;;;;10.77;6.50;;;8.40;1.00;;;;;;5044198;28;20488;-89
2023/04/25 04:38:15;;;;;;;14.30;6.80;;;8.30;1.00;;;;;;5022425;28;21065;-84
2023/04/25 04:41:12;;;;;;;20.63;6.67;;;8.30;1.00;;;;;;5015200;28;20447;-84
2023/04/25 04:43:39;;;;;;;9.63;6.13;;;8.40;1.00;;;;;;5015190;28;20455;-84
2023/04/25 04:46:07;;;;;;;14.03;6.43;;;8.40;1.00;;;;;;5015590;28;20389;-84
2023/04/25 04:48:34;;;;;;;18.53;7.73;;;8.50;1.00;;;;;;5044843;28;20423;-84
2023/04/25 04:51:25;;;;;;;18.20;7.40;;;8.50;1.00;;;;;;5016043;28;20426;-84
2023/04/25 04:54:13;;;;;;;14.37;7.50;;;8.50;1.00;;;;;;5013487;28;20419;-85
2023/04/25 04:56:38;;;;;;;14.40;6.80;;;8.50;1.00;;;;;;5026311;28;20537;-84
2023/04/25 04:59:13;;;;;;;17.37;6.23;;;8.50;1.00;;;;;;5019559;28;20493;-84
2023/04/25 05:05:07;;;;;;;16.27;8.97;;;8.50;1.00;;;;;;5034534;28;20405;-86
2023/04/25 05:07:43;;;;;;;15.20;7.77;;;8.50;1.00;;;;;;5018308;28;20482;-87
2023/04/25 05:10:13;;;;;;;13.50;6.90;;;8.60;1.00;;;;;;5029864;28;20416;-84
2023/04/25 05:13:12;;;;;;;16.10;6.73;;;8.70;1.00;;;;;;5051880;28;20414;-86
2023/04/25 05:16:13;;;;;;;13.80;6.47;;;8.70;1.00;;;;;;5016244;28;20485;-86
2023/04/25 05:18:43;;;;;;;13.43;6.67;;;8.90;1.00;;;;;;5014734;28;20424;-85
2023/04/25 05:21:13;;;;;;;13.30;7.03;;;9.00;1.00;;;;;;5017101;28;20405;-86
2023/04/25 05:24:01;;;;;;;24.97;7.07;;;9.10;1.00;;;;;;5033401;28;20403;-86
2023/04/25 05:26:43;;;;;;;15.90;6.20;;;9.20;1.00;;;;;;5034729;28;20391;-87
2023/04/25 05:32:43;;;;;;;11.97;5.63;;;9.40;1.00;;;;;;5029072;28;20412;-87
2023/04/25 05:35:13;;;;;;;17.57;6.03;;;9.60;1.00;;;;;;5033377;28;20807;-88
2023/04/25 05:41:13;;;;;;;12.00;6.20;;;9.80;1.00;;;;;;5014280;28;20513;-87
2023/04/25 05:43:38;;;;;;;13.37;6.37;;;9.80;1.00;;;;;;5013571;28;20773;-87
2023/04/25 05:46:13;;;;;;;10.67;6.03;;;9.90;1.00;;;;;;5016210;28;20419;-87
2023/04/25 05:49:12;;;;;;;18.17;6.03;;;10.10;1.00;;;;;;5021437;28;20647;-87
2023/04/25 05:51:43;;;;;;;18.67;6.30;;;10.20;1.00;;;;;;5013435;28;20509;-88
2023/04/25 05:57:30;;;;;;;13.57;5.70;;;10.40;1.00;;;;;;5014472;28;20953;-87
2023/04/25 06:00:15;;;;;;;21.43;5.70;;;10.60;1.00;;;;;;5041863;28;20458;-87
2023/04/25 06:03:14;;;;;;;14.00;6.10;;;10.80;1.00;;;;;;5029265;28;20422;-84
2023/04/25 06:05:42;;;;;;;13.87;6.00;;;10.90;1.00;;;;;;5013131;28;20396;-84
2023/04/25 06:08:13;;;;;;;19.57;5.87;;;11.00;1.00;;;;;;5014251;28;20387;-84
2023/04/25 06:11:13;;;;;;;9.73;5.57;;;11.10;1.00;;;;;;5020896;28;20523;-84
2023/04/25 06:13:43;;;;;;;11.60;5.50;;;11.20;1.00;;;;;;5016566;28;20462;-84
2023/04/25 06:16:13;;;;;;;9.00;5.30;;;11.30;1.00;;;;;;5018229;28;20419;-88
2023/04/25 06:18:39;;;;;;;10.00;5.23;;;11.40;1.00;;;;;;5018565;28;20487;-87
2023/04/25 06:21:04;;;;;;;12.70;5.43;;;11.40;1.00;;;;;;5035838;28;20441;-70
2023/04/25 06:23:30;;;;;;;8.10;4.83;;;11.30;1.00;;;;;;5036297;28;20569;-70
2023/04/25 06:25:56;;;;;;;8.20;5.07;;;11.50;1.00;;;;;;5036939;28;20145;-70
2023/04/25 06:28:23;;;;;;;11.27;5.40;;;11.50;1.00;;;;;;5032953;28;20185;-70
2023/04/25 06:31:25;;;;;;;16.23;6.30;;;11.60;1.00;;;;;;5032003;28;20272;-72
2023/04/25 06:33:55;;;;;;;13.20;5.20;;;11.60;1.00;;;;;;5036948;28;20405;-71
2023/04/25 06:36:25;;;;;;;13.30;5.50;;;11.60;1.00;;;;;;5034261;28;20395;-72
2023/04/25 06:39:13;;;;;;;11.27;4.90;;;11.40;1.00;;;;;;5017938;28;20770;-85
2023/04/25 06:41:43;;;;;;;10.10;5.23;;;11.50;1.00;;;;;;5034204;28;20542;-84
2023/04/25 06:44:13;;;;;;;11.63;5.10;;;11.60;1.00;;;;;;5017395;28;20398;-84
2023/04/25 06:46:43;;;;;;;14.97;5.57;;;11.80;1.00;;;;;;5017255;28;20407;-83
2023/04/25 06:49:19;;;;;;;13.73;6.20;;;11.90;1.00;;;;;;5033624;28;20978;-84
2023/04/25 06:52:13;;;;;;;14.10;5.80;;;11.90;1.00;;;;;;5018683;28;20417;-84
2023/04/25 06:54:43;;;;;;;10.33;5.43;;;11.40;1.00;;;;;;5016289;28;20499;-84
2023/04/25 06:57:09;;;;;;;14.90;5.30;;;11.60;1.00;;;;;;5017453;28;20453;-84
2023/04/25 06:59:35;;;;;;;10.70;5.40;;;11.90;1.00;;;;;;5016206;28;20430;-84
2023/04/25 07:02:13;;;;;;;10.80;4.90;;;12.10;1.00;;;;;;5026862;28;20181;-84
2023/04/25 07:04:43;;;;;;;15.67;5.47;;;12.20;1.00;;;;;;5031240;28;20193;-84
2023/04/25 07:07:55;;;;;;;12.33;5.50;;;12.40;1.00;;;;;;5035399;28;20404;-83
2023/04/25 07:10:43;;;;;;;8.83;5.03;;;12.40;1.00;;;;;;5024431;28;20405;-84
2023/04/25 07:13:13;;;;;;;6.30;4.77;;;12.50;1.00;;;;;;5032622;28;20450;-84
2023/04/25 07:15:43;;;;;;;6.50;4.33;;;12.30;1.00;;;;;;5021740;28;20488;-82
2023/04/25 07:18:13;;;;;;;10.73;4.93;;;12.30;1.00;;;;;;5015754;28;20426;-86
2023/04/25 07:20:43;;;;;;;7.60;3.90;;;12.30;1.00;;;;;;5023567;28;20546;-87
2023/04/25 07:23:42;;;;;;;12.20;4.70;;;12.40;1.00;;;;;;5016835;28;20775;-86
2023/04/25 07:26:18;;;;;;;11.90;4.20;;;12.20;1.00;;;;;;5027622;28;20425;-85
2023/04/25 07:32:36;;;;;;;12.07;4.40;;;11.60;1.00;;;;;;5018652;28;20488;-84
2023/04/25 07:35:13;;;;;;;6.20;3.90;;;11.50;1.00;;;;;;5020626;28;20432;-86
2023/04/25 07:37:43;;;;;;;7.60;4.27;;;11.50;1.00;;;;;;5018331;28;20446;-86
2023/04/25 07:40:42;;;;;;;8.93;4.10;;;11.40;1.00;;;;;;5032276;28;20556;-86
2023/04/25 07:43:16;;;;;;;6.10;3.37;;;11.20;1.00;;;;;;5021996;28;20418;-86
2023/04/25 07:45:44;;;;;;;8.50;3.90;;;11.20;1.00;;;;;;5037970;28;20428;-86
2023/04/25 07:48:10;;;;;;;5.60;3.50;;;11.10;1.00;;;;;;5029613;28;20944;-85
2023/04/25 07:50:43;;;;;;;9.20;4.17;;;10.90;1.00;;;;;;5061857;28;20412;-86
2023/04/25 07:56:36;;;;;;;8.80;4.27;;;10.80;1.00;;;;;;5017769;28;20398;-86
2023/04/25 07:59:13;;;;;;;9.57;3.87;;;11.00;1.00;;;;;;5016856;28;20821;-86
2023/04/25 08:01:43;;;;;;;9.63;3.60;;;11.20;1.00;;;;;;5015042;28;20419;-86
2023/04/25 08:04:13;;;;;;;9.97;4.33;;;11.30;1.00;;;;;;5035062;28;20496;-85
2023/04/25 08:07:07;;;;;;;7.53;2.90;;;11.60;1.00;;;;;;5030879;28;20470;-86
2023/04/25 08:09:37;;;;;;;6.73;3.30;;;11.90;1.00;;;;;;5030202;28;20413;-86
2023/04/25 08:12:13;;;;;;;6.53;3.20;;;12.00;1.00;;;;;;5029651;28;20406;-85
2023/04/25 08:14:43;;;;;;;8.20;3.50;;;12.30;1.00;;;;;;5016367;28;20718;-85
2023/04/25 08:17:13;;;;;;;5.83;2.80;;;12.50;1.00;;;;;;5014606;28;20454;-85
2023/04/25 08:19:44;;;;;;;4.37;2.90;;;13.00;1.00;;;;;;5016752;28;21096;-84
2023/04/25 08:22:10;;;;;;;9.47;3.60;;;13.30;1.00;;;;;;5033583;28;20590;-84
2023/04/25 08:27:59;;;;;;;5.20;2.73;;;13.60;1.00;;;;;;5015248;28;20191;-84
2023/04/25 08:33:47;;;;;;;6.80;3.03;;;13.40;1.00;;;;;;5023724;28;20431;-84
2023/04/25 08:36:13;;;;;;;5.00;2.93;;;13.50;1.00;;;;;;5034849;28;20407;-85
2023/04/25 08:38:43;;;;;;;4.27;3.03;;;13.60;1.00;;;;;;5021480;28;20554;-85
2023/04/25 08:41:31;;;;;;;4.53;2.40;;;13.70;1.00;;;;;;5029135;28;20441;-85
2023/04/25 08:44:14;;;;;;;7.87;2.67;;;13.70;1.00;;;;;;5014202;28;20574;-85
2023/04/25 08:46:49;;;;;;;5.23;2.77;;;13.50;1.00;;;;;;5015400;28;20531;-84
2023/04/25 08:52:45;;;;;;;4.50;2.70;;;13.20;1.00;;;;;;5033338;28;20824;-85
2023/04/25 08:55:19;;;;;;;2.50;2.17;;;13.50;1.00;;;;;;5024936;28;20451;-85
2023/04/25 08:57:44;;;;;;;6.50;2.60;;;13.70;1.00;;;;;;5042154;28;20444;-85
2023/04/25 09:00:14;;;;;;;4.20;2.80;;;13.90;1.00;;;;;;5028084;28;20450;-86
2023/04/25 09:02:49;;;;;;;5.53;3.20;;;14.00;1.00;;;;;;5031080;28;20176;-85
2023/04/25 09:05:19;;;;;;;3.33;2.47;;;14.10;1.00;;;;;;5034349;28;20429;-85
2023/04/25 09:08:13;;;;;;;2.97;2.67;;;14.10;1.00;;;;;;5020938;28;20436;-85
2023/04/25 09:10:43;;;;;;;3.97;2.70;;;14.10;1.00;;;;;;5033542;28;20382;-85
2023/04/25 09:13:17;;;;;;;6.40;3.67;;;14.20;1.00;;;;;;5026672;28;20438;-86
2023/04/25 09:15:54;;;;;;;3.70;2.97;;;14.00;1.00;;;;;;5025492;28;20417;-86
2023/04/25 09:18:43;;;;;;;6.33;3.10;;;14.00;1.00;;;;;;5022779;28;20410;-85
2023/04/25 09:21:14;;;;;;;9.00;3.00;;;13.90;1.00;;;;;;5024468;28;20868;-84
2023/04/25 09:23:48;;;;;;;4.27;2.60;;;14.00;1.00;;;;;;5031868;28;20768;-85
2023/04/25 09:26:19;;;;;;;5.63;3.07;;;14.00;1.00;;;;;;5019351;28;20427;-73
2023/04/25 09:28:45;;;;;;;4.80;3.17;;;14.10;1.00;;;;;;5021615;28;20504;-73
2023/04/25 09:31:11;;;;;;;5.83;3.13;;;14.30;1.00;;;;;;5033108;28;21034;-72
2023/04/25 09:33:38;;;;;;;4.97;3.47;;;14.50;1.00;;;;;;5043568;28;20497;-71
2023/04/25 09:36:09;;;;;;;3.23;2.93;;;14.30;1.00;;;;;;5022943;28;20648;-71
2023/04/25 09:38:45;;;;;;;8.27;3.30;;;14.40;1.00;;;;;;5017811;28;20428;-71
2023/04/25 09:41:11;;;;;;;5.40;3.40;;;14.80;1.00;;;;;;5020844;28;20425;-71
2023/04/25 09:43:38;;;;;;;4.73;3.60;;;14.70;1.00;;;;;;5019883;28;20434;-71
2023/04/25 09:46:09;;;;;;;6.40;3.80;;;14.80;1.00;;;;;;5026019;28;20431;-71
2023/04/25 09:48:35;;;;;;;5.60;3.27;;;14.80;1.00;;;;;;5037655;28;20465;-71
2023/04/25 09:51:04;;;;;;;5.83;3.40;;;14.90;1.00;;;;;;5035223;28;20433;-71
2023/04/25 09:53:31;;;;;;;8.97;3.67;;;15.10;1.00;;;;;;5037648;28;20164;-71
2023/04/25 09:56:08;;;;;;;4.70;3.03;;;14.80;1.00;;;;;;5031315;28;20496;-71
2023/04/25 09:58:35;;;;;;;9.37;3.60;;;15.10;1.00;;;;;;5037221;28;20438;-71
2023/04/25 10:01:04;;;;;;;8.10;3.63;;;15.10;1.00;;;;;;5025371;28;20459;-71
2023/04/25 10:03:32;;;;;;;10.73;3.87;;;15.10;1.00;;;;;;5020116;28;20446;-70
2023/04/25 10:06:00;;;;;;;6.50;3.90;;;15.10;1.00;;;;;;5023272;28;20427;-71
2023/04/25 10:08:32;;;;;;;3.60;3.13;;;15.20;1.00;;;;;;5017443;28;20459;-71
2023/04/25 10:11:22;;;;;;;11.03;3.90;;;15.10;1.00;;;;;;5024552;28;20435;-72
2023/04/25 10:13:49;;;;;;;4.80;3.30;;;15.00;1.00;;;;;;5015979;28;20453;-71
2023/04/25 10:16:18;;;;;;;10.53;3.00;;;14.80;1.00;;;;;;5027634;28;20536;-71
2023/04/25 10:18:44;;;;;;;4.93;3.57;;;14.90;1.00;;;;;;5018990;28;20475;-71
2023/04/25 10:21:10;;;;;;;4.03;3.20;;;14.90;1.00;;;;;;5029841;28;21051;-71
2023/04/25 10:23:37;;;;;;;7.30;3.57;;;15.00;1.00;;;;;;5027748;28;20197;-72
2023/04/25 10:26:03;;;;;;;3.10;2.80;;;15.30;1.00;;;;;;5029781;28;20450;-72
2023/04/25 10:28:29;;;;;;;8.97;3.30;;;15.40;1.00;;;;;;5016813;28;20407;-72
2023/04/25 10:31:01;;;;;;;4.80;3.10;;;15.60;1.00;;;;;;5017560;28;20463;-71
2023/04/25 10:33:41;;;;;;;3.03;2.73;;;15.90;1.00;;;;;;5020435;28;20179;-73
2023/04/25 10:36:21;;;;;;;3.67;2.80;;;16.00;1.00;;;;;;5032407;28;20806;-73
2023/04/25 10:38:50;;;;;;;5.03;3.30;;;16.00;1.00;;;;;;5016709;28;20491;-73
2023/04/25 10:41:18;;;;;;;7.50;3.67;;;15.80;1.00;;;;;;5017289;28;20494;-73
2023/04/25 10:43:46;;;;;;;6.37;3.13;;;15.60;1.00;;;;;;5034820;28;20484;-73
2023/04/25 10:46:30;;;;;;;5.83;3.33;;;15.40;1.00;;;;;;5023992;28;20822;-73
2023/04/25 10:48:58;;;;;;;4.40;3.33;;;15.20;1.00;;;;;;5026830;28;20430;-72
2023/04/25 10:51:32;;;;;;;5.97;3.83;;;15.00;1.00;;;;;;5016999;28;20453;-72
2023/04/25 10:54:06;;;;;;;7.50;3.70;;;14.30;1.00;;;;;;5049262;28;20970;-72
2023/04/25 10:56:43;;;;;;;6.97;3.90;;;14.10;1.00;;;;;;5025924;28;20416;-72
2023/04/25 10:59:11;;;;;;;8.03;3.87;;;14.00;1.00;;;;;;5028348;28;20421;-72
2023/04/25 11:01:48;;;;;;;7.60;4.10;;;13.90;1.00;;;;;;5016981;28;20418;-71
2023/04/25 11:04:45;;;;;;;7.30;4.03;;;13.90;1.00;;;;;;5031178;28;20457;-73
2023/04/25 11:07:57;;;;;;;7.17;3.77;;;13.80;1.00;;;;;;5021276;28;20424;-73
2023/04/25 11:10:29;;;;;;;4.93;3.53;;;14.00;1.00;;;;;;5017928;28;20827;-73
2023/04/25 11:13:01;;;;;;;10.47;3.87;;;14.20;1.00;;;;;;5016523;28;20421;-73
2023/04/25 11:15:37;;;;;;;6.50;3.17;;;14.50;1.00;;;;;;5024654;28;20394;-73
2023/04/25 11:18:03;;;;;;;6.80;3.47;;;14.60;1.00;;;;;;5032376;28;20924;-72
2023/04/25 11:20:29;;;;;;;5.47;3.70;;;14.70;1.00;;;;;;5035554;28;20787;-71
2023/04/25 11:23:01;;;;;;;6.03;3.60;;;14.60;1.00;;;;;;5035180;28;20433;-72
2023/04/25 11:25:31;;;;;;;5.70;3.17;;;14.70;1.00;;;;;;5015940;28;20195;-71
2023/04/25 11:28:01;;;;;;;5.17;3.23;;;14.60;1.00;;;;;;5035790;28;20421;-71
2023/04/25 11:30:28;;;;;;;3.50;2.77;;;14.40;1.00;;;;;;5032148;28;20399;-71
2023/04/25 11:32:54;;;;;;;4.60;2.63;;;14.20;1.00;;;;;;5035012;28;20387;-72
2023/04/25 11:35:22;;;;;;;4.40;2.80;;;14.00;1.00;;;;;;5034865;28;20455;-71
2023/04/25 11:37:49;;;;;;;5.87;3.20;;;13.80;1.00;;;;;;5027554;28;20439;-72
2023/04/25 11:40:15;;;;;;;3.60;3.20;;;13.80;1.00;;;;;;5015852;28;20423;-71
2023/04/25 11:42:47;;;;;;;5.00;2.83;;;13.80;1.00;;;;;;5015715;28;20842;-73
2023/04/25 11:45:19;;;;;;;4.60;2.97;;;14.10;1.00;;;;;;5017027;28;20164;-73
2023/04/25 11:48:02;;;;;;;5.90;3.07;;;14.10;1.00;;;;;;5026832;28;20998;-73
2023/04/25 11:50:39;;;;;;;8.50;3.20;;;14.20;1.00;;;;;;5016345;28;20444;-72
2023/04/25 11:53:06;;;;;;;5.50;3.43;;;14.60;1.00;;;;;;5021323;28;20426;-72
2023/04/25 11:55:32;;;;;;;5.23;3.03;;;14.70;1.00;;;;;;5033139;28;20492;-72
2023/04/25 11:58:00;;;;;;;7.37;3.13;;;14.90;1.00;;;;;;5027490;28;20462;-71
2023/04/25 12:00:32;;;;;;;8.13;2.63;;;14.90;1.00;;;;;;5018107;28;20459;-72
2023/04/25 12:02:58;;;;;;;11.77;3.20;;;15.00;1.00;;;;;;5029638;28;20519;-72
2023/04/25 12:05:37;;;;;;;5.70;2.63;;;14.80;1.00;;;;;;5031745;28;20489;-73
2023/04/25 12:08:14;;;;;;;3.67;2.70;;;14.70;1.00;;;;;;5035577;28;20426;-73
2023/04/25 12:10:41;;;;;;;6.17;3.20;;;14.50;1.00;;;;;;5026474;28;20443;-73
2023/04/25 12:13:27;;;;;;;6.83;3.17;;;14.70;1.00;;;;;;5020808;28;20440;-73
2023/04/25 12:15:56;;;;;;;3.47;2.67;;;14.90;1.00;;;;;;5029010;28;20405;-73
2023/04/25 12:18:27;;;;;;;7.83;3.47;;;15.10;1.00;;;;;;5030122;28;20439;-73
2023/04/25 12:20:53;;;;;;;9.27;3.63;;;15.10;1.00;;;;;;5026684;28;20442;-74
2023/04/25 12:23:49;;;;;;;6.80;2.50;;;15.10;1.00;;;;;;5015769;28;20914;-73
2023/04/25 12:26:25;;;;;;;6.07;3.13;;;14.50;1.00;;;;;;5030325;28;20569;-72
2023/04/25 12:29:01;;;;;;;4.77;3.30;;;14.60;1.00;;;;;;5015133;28;20396;-74
2023/04/25 12:31:32;;;;;;;6.83;3.03;;;14.50;1.00;;;;;;5019420;28;20405;-73
2023/04/25 12:33:58;;;;;;;6.20;3.20;;;14.50;1.00;;;;;;5031111;28;20430;-72
2023/04/25 12:36:25;;;;;;;4.73;3.20;;;14.40;1.00;;;;;;5027683;28;20457;-72
2023/04/25 12:38:51;;;;;;;8.60;3.27;;;14.20;1.00;;;;;;5019836;28;20188;-72
2023/04/25 12:41:25;;;;;;;5.77;2.63;;;14.10;1.00;;;;;;5013556;28;20434;-72
2023/04/25 12:43:51;;;;;;;3.93;2.50;;;14.00;1.00;;;;;;5023209;28;20181;-72
2023/04/25 12:46:25;;;;;;;6.50;3.07;;;14.10;1.00;;;;;;5014482;28;20489;-72
2023/04/25 12:48:55;;;;;;;8.53;3.33;;;14.10;1.00;;;;;;5021514;28;20283;-72
2023/04/25 12:51:32;;;;;;;9.63;3.90;;;14.20;1.00;;;;;;5034344;28;20381;-71
2023/04/25 12:53:59;;;;;;;7.73;3.80;;;14.20;1.00;;;;;;5020438;28;20417;-72
2023/04/25 12:56:27;;;;;;;9.10;3.00;;;14.50;1.00;;;;;;5019273;28;20540;-72
2023/04/25 12:58:53;;;;;;;3.23;2.63;;;14.50;1.00;;;;;;5020291;28;20429;-72
2023/04/25 13:01:20;;;;;;;7.17;3.20;;;14.60;1.00;;;;;;5025416;28;20440;-72
2023/04/25 13:03:47;;;;;;;7.87;2.60;;;14.70;1.00;;;;;;5029562;28;20905;-72
2023/04/25 13:06:13;;;;;;;5.90;2.93;;;14.40;1.00;;;;;;5033098;28;20407;-80
2023/04/25 13:09:31;;;;;;;5.70;3.20;;;14.60;1.00;;;;;;5022034;28;20409;-82
2023/04/25 13:12:07;;;;;;;6.40;2.73;;;14.80;1.00;;;;;;5013840;28;20451;-82
2023/04/25 13:14:33;;;;;;;9.03;3.03;;;15.40;1.00;;;;;;5030567;28;20403;-81
2023/04/25 13:17:01;;;;;;;11.23;3.20;;;15.50;1.00;;;;;;5027089;28;20558;-81
2023/04/25 13:19:31;;;;;;;6.90;2.80;;;15.40;1.00;;;;;;5034269;28;20509;-82
2023/04/25 13:22:45;;;;;;;7.80;3.50;;;15.60;1.00;;;;;;5033116;28;20831;-82
2023/04/25 13:28:33;;;;;;;3.67;2.60;;;15.50;1.00;;;;;;5032100;28;20423;-82
2023/04/25 13:30:59;;;;;;;7.90;3.37;;;15.40;1.00;;;;;;5033716;28;20427;-80
2023/04/25 13:33:25;;;;;;;3.77;3.10;;;15.40;1.00;;;;;;5037399;28;20428;-72
2023/04/25 13:36:13;;;;;;;7.30;3.23;;;15.50;1.00;;;;;;5034346;28;20415;-84
2023/04/25 13:39:19;;;;;;;6.27;3.67;;;15.60;1.00;;;;;;5028978;28;20446;-85
2023/04/25 13:45:25;;;;;;;4.63;3.00;;;15.70;1.00;;;;;;5017830;28;20772;-83
2023/04/25 13:48:19;;;;;;;7.77;3.97;;;15.30;1.00;;;;;;5028831;28;20435;-85
2023/04/25 13:50:45;;;;;;;5.57;3.50;;;15.60;1.00;;;;;;5026569;28;20426;-74
2023/04/25 13:53:14;;;;;;;5.20;3.20;;;15.60;1.00;;;;;;5026905;28;20428;-77
2023/04/25 13:55:43;;;;;;;8.90;3.50;;;15.50;1.00;;;;;;5020186;28;21414;-78
2023/04/25 13:58:09;;;;;;;6.03;3.27;;;15.50;1.00;;;;;;5024988;28;20447;-78
2023/04/25 14:00:38;;;;;;;6.10;3.23;;;15.60;1.00;;;;;;5048775;28;20456;-78
2023/04/25 14:03:07;;;;;;;8.43;3.20;;;15.80;1.00;;;;;;5049574;28;20430;-77
2023/04/25 14:06:13;;;;;;;7.50;2.90;;;15.70;1.00;;;;;;5022907;28;20489;-81
2023/04/25 14:08:43;;;;;;;6.17;3.27;;;16.00;1.00;;;;;;5032960;28;20422;-81
2023/04/25 14:11:13;;;;;;;5.20;3.13;;;16.10;1.00;;;;;;5024937;28;20433;-80
2023/04/25 14:13:44;;;;;;;8.00;3.20;;;15.80;1.00;;;;;;5028380;28;20410;-83
2023/04/25 14:16:13;;;;;;;5.83;2.93;;;15.90;1.00;;;;;;5025954;28;20432;-83
2023/04/25 14:18:39;;;;;;;5.93;3.30;;;15.80;1.00;;;;;;5013341;28;20471;-82
2023/04/25 14:21:05;;;;;;;5.90;3.07;;;16.10;1.00;;;;;;5022627;28;21101;-82
2023/04/25 14:23:37;;;;;;;5.47;2.53;;;16.20;1.00;;;;;;5031059;28;20516;-83
2023/04/25 14:26:13;;;;;;;4.53;2.10;;;16.30;1.00;;;;;;5027903;28;20459;-85
2023/04/25 14:29:13;;;;;;;7.00;2.57;;;16.30;1.00;;;;;;5024439;28;20501;-86
2023/04/25 14:31:44;;;;;;;5.70;2.67;;;16.40;1.00;;;;;;5031192;28;20428;-89
2023/04/25 14:34:13;;;;;;;2.40;2.00;;;16.50;1.00;;;;;;5030532;28;20411;-88
2023/04/25 14:36:43;;;;;;;6.30;2.00;;;16.20;1.00;;;;;;5028829;28;20507;-85
2023/04/25 14:39:14;;;;;;;2.73;1.93;;;15.80;1.00;;;;;;5044868;28;20401;-83
2023/04/25 14:41:55;;;;;;;4.60;2.33;;;15.60;1.00;;;;;;5035751;28;20410;-84
2023/04/25 14:47:43;;;;;;;7.67;2.20;;;15.60;1.00;;;;;;5024672;28;20451;-84
2023/04/25 14:50:13;;;;;;;7.43;2.60;;;15.00;1.00;;;;;;5032604;28;20431;-90
2023/04/25 14:53:13;;;;;;;5.00;2.10;;;14.70;1.00;;;;;;5025606;28;20406;-87
2023/04/25 14:55:55;;;;;;;4.50;2.30;;;14.50;1.00;;;;;;5059949;28;20918;-87